createdAt,value
2017-11-12T00:01:35.032Z,2.90
2017-11-12T00:04:02.586Z,2.90
2017-11-12T00:06:30.154Z,2.90
2017-11-12T00:08:57.703Z,2.80
2017-11-12T00:11:25.276Z,2.90
2017-11-12T00:13:52.841Z,2.80
2017-11-12T00:16:20.414Z,2.80
2017-11-12T00:18:47.984Z,2.80
2017-11-12T00:21:15.513Z,2.80
2017-11-12T00:23:43.076Z,2.80
2017-11-12T00:26:10.627Z,2.80
2017-11-12T00:28:38.210Z,2.80
2017-11-12T00:31:05.764Z,2.90
2017-11-12T00:33:33.339Z,2.90
2017-11-12T00:36:00.885Z,2.90
2017-11-12T00:38:28.470Z,2.90
2017-11-12T00:40:56.792Z,2.80
2017-11-12T00:43:24.354Z,2.80
2017-11-12T00:45:51.919Z,2.80
2017-11-12T00:48:19.460Z,2.80
2017-11-12T00:50:47.056Z,2.70
2017-11-12T00:53:14.608Z,2.60
2017-11-12T00:55:42.146Z,2.70
2017-11-12T00:58:09.720Z,2.60
2017-11-12T01:00:37.290Z,2.60
2017-11-12T01:03:04.863Z,2.50
2017-11-12T01:05:32.446Z,2.50
2017-11-12T01:08:00.764Z,2.60
2017-11-12T01:10:28.313Z,2.60
2017-11-12T01:12:55.860Z,2.70
2017-11-12T01:15:23.436Z,2.60
2017-11-12T01:17:50.992Z,2.60
2017-11-12T01:20:18.566Z,2.60
2017-11-12T01:22:46.117Z,2.60
2017-11-12T01:25:13.677Z,2.60
2017-11-12T01:27:41.261Z,2.60
2017-11-12T01:30:08.798Z,2.50
2017-11-12T01:32:36.415Z,2.50
2017-11-12T01:35:04.763Z,2.60
2017-11-12T01:37:32.293Z,2.60
2017-11-12T01:39:59.885Z,2.60
2017-11-12T01:42:27.421Z,2.60
2017-11-12T01:44:54.996Z,2.60
2017-11-12T01:47:22.559Z,2.70
2017-11-12T01:49:50.127Z,2.70
2017-11-12T01:52:17.699Z,2.70
2017-11-12T01:54:45.255Z,2.70
2017-11-12T01:57:12.818Z,2.80
2017-11-12T01:59:41.167Z,2.90
2017-11-12T02:02:08.697Z,2.80
2017-11-12T02:04:36.282Z,2.90
2017-11-12T02:07:03.831Z,2.90
2017-11-12T02:09:31.362Z,2.90
2017-11-12T02:11:58.927Z,3.00
2017-11-12T02:14:26.471Z,3.10
2017-11-12T02:16:54.821Z,3.30
2017-11-12T02:19:22.354Z,3.20
2017-11-12T02:21:50.115Z,3.40
2017-11-12T02:24:17.698Z,3.50
2017-11-12T02:26:45.237Z,3.50
2017-11-12T02:29:12.818Z,3.50
2017-11-12T02:31:40.376Z,3.50
2017-11-12T02:34:07.983Z,3.50
2017-11-12T02:36:35.578Z,3.50
2017-11-12T02:39:03.128Z,3.50
2017-11-12T02:41:30.727Z,3.50
2017-11-12T02:43:59.053Z,3.40
2017-11-12T02:46:26.625Z,3.30
2017-11-12T02:48:54.205Z,3.30
2017-11-12T02:51:21.763Z,3.30
2017-11-12T02:53:49.341Z,3.30
2017-11-12T02:56:16.885Z,3.30
2017-11-12T02:58:44.445Z,3.20
2017-11-12T03:01:13.543Z,3.20
2017-11-12T03:03:41.174Z,3.20
2017-11-12T03:06:08.734Z,3.20
2017-11-12T03:08:36.284Z,3.20
2017-11-12T03:11:03.812Z,3.30
2017-11-12T03:13:32.126Z,3.30
2017-11-12T03:15:59.665Z,3.30
2017-11-12T03:18:27.224Z,3.40
2017-11-12T03:20:54.776Z,3.30
2017-11-12T03:23:22.323Z,3.30
2017-11-12T03:25:50.651Z,3.40
2017-11-12T03:28:18.200Z,3.40
2017-11-12T03:30:45.787Z,3.40
2017-11-12T03:33:13.337Z,3.40
2017-11-12T03:35:40.901Z,3.40
2017-11-12T03:38:08.455Z,3.30
2017-11-12T03:40:36.024Z,3.30
2017-11-12T03:43:03.571Z,3.30
2017-11-12T03:45:31.216Z,3.20
2017-11-12T03:47:58.779Z,3.20
2017-11-12T03:50:26.330Z,3.20
2017-11-12T03:52:53.877Z,3.20
2017-11-12T03:55:21.427Z,3.10
2017-11-12T03:57:49.017Z,3.10
2017-11-12T04:00:16.590Z,3.20
2017-11-12T04:02:44.125Z,3.10
2017-11-12T04:05:11.685Z,3.10
2017-11-12T04:07:39.246Z,3.10
2017-11-12T04:10:06.815Z,3.20
2017-11-12T04:12:34.373Z,3.20
2017-11-12T04:15:01.945Z,3.10
2017-11-12T04:17:29.495Z,3.20
2017-11-12T04:19:57.043Z,3.20
2017-11-12T04:22:24.608Z,3.20
2017-11-12T04:24:52.160Z,3.10
2017-11-12T04:27:19.727Z,3.10
2017-11-12T04:29:47.271Z,3.10
2017-11-12T04:32:14.824Z,3.10
2017-11-12T04:34:42.387Z,3.10
2017-11-12T04:37:09.932Z,3.10
2017-11-12T04:39:37.498Z,3.10
2017-11-12T04:42:05.075Z,3.00
2017-11-12T04:44:32.647Z,3.10
2017-11-12T04:47:00.214Z,3.10
2017-11-12T04:49:27.765Z,3.10
2017-11-12T04:51:55.335Z,3.10
2017-11-12T04:54:22.879Z,3.10
2017-11-12T04:56:50.473Z,3.10
2017-11-12T04:59:18.024Z,3.20
2017-11-12T05:01:45.582Z,3.20
2017-11-12T05:04:13.155Z,3.10
2017-11-12T05:06:41.453Z,3.20
2017-11-12T05:09:09.802Z,3.10
2017-11-12T05:11:37.372Z,3.10
2017-11-12T05:14:05.673Z,3.30
2017-11-12T05:16:33.226Z,3.30
2017-11-12T05:19:01.536Z,3.30
2017-11-12T05:21:29.093Z,3.30
2017-11-12T05:23:56.625Z,3.30
2017-11-12T05:26:24.171Z,3.40
2017-11-12T05:28:52.499Z,3.40
2017-11-12T05:31:20.029Z,3.40
2017-11-12T05:33:47.604Z,3.50
2017-11-12T05:36:15.154Z,3.50
2017-11-12T05:38:42.726Z,3.50
2017-11-12T05:41:10.273Z,3.60
2017-11-12T05:43:37.807Z,3.60
2017-11-12T05:46:05.410Z,3.60
2017-11-12T05:48:32.961Z,3.60
2017-11-12T05:51:00.507Z,3.60
2017-11-12T05:53:28.089Z,3.60
2017-11-12T05:55:55.639Z,3.50
2017-11-12T05:58:23.215Z,3.60
2017-11-12T06:00:50.759Z,3.60
2017-11-12T06:03:18.303Z,3.60
2017-11-12T06:05:45.877Z,3.60
2017-11-12T06:08:13.423Z,3.60
2017-11-12T06:10:41.007Z,3.60
2017-11-12T06:13:08.574Z,3.70
2017-11-12T06:15:36.123Z,3.70
2017-11-12T06:18:03.687Z,3.70
2017-11-12T06:20:31.239Z,3.70
2017-11-12T06:22:58.830Z,3.80
2017-11-12T06:25:26.380Z,3.80
2017-11-12T06:27:53.942Z,3.80
2017-11-12T06:30:23.029Z,3.80
2017-11-12T06:32:50.594Z,3.80
2017-11-12T06:35:18.941Z,3.90
2017-11-12T06:37:46.497Z,3.90
2017-11-12T06:40:14.058Z,3.90
2017-11-12T06:42:41.642Z,3.90
2017-11-12T06:45:09.192Z,3.90
2017-11-12T06:47:36.781Z,3.90
2017-11-12T06:50:04.314Z,3.90
2017-11-12T06:52:31.875Z,4.00
2017-11-12T06:54:59.426Z,4.00
2017-11-12T06:57:26.971Z,4.00
2017-11-12T06:59:54.559Z,4.00
2017-11-12T07:02:22.171Z,4.00
2017-11-12T07:04:49.754Z,4.00
2017-11-12T07:07:17.347Z,4.10
2017-11-12T07:09:44.953Z,4.10
2017-11-12T07:12:12.524Z,4.20
2017-11-12T07:14:40.075Z,4.20
2017-11-12T07:17:07.632Z,4.20
2017-11-12T07:19:35.199Z,4.20
2017-11-12T07:22:02.747Z,4.20
2017-11-12T07:24:30.340Z,4.30
2017-11-12T07:26:57.888Z,4.30
2017-11-12T07:29:25.435Z,4.30
2017-11-12T07:31:52.985Z,4.40
2017-11-12T07:34:20.517Z,4.40
2017-11-12T07:36:48.861Z,4.40
2017-11-12T07:39:16.422Z,4.40
2017-11-12T07:41:44.000Z,4.50
2017-11-12T07:44:11.567Z,4.50
2017-11-12T07:46:39.130Z,4.50
2017-11-12T07:49:07.480Z,4.60
2017-11-12T07:51:35.028Z,4.60
2017-11-12T07:54:02.590Z,4.60
2017-11-12T07:56:30.155Z,4.70
2017-11-12T07:58:57.793Z,4.80
2017-11-12T08:01:25.374Z,4.80
2017-11-12T08:03:52.923Z,4.80
2017-11-12T08:06:20.499Z,4.80
2017-11-12T08:08:48.065Z,4.80
2017-11-12T08:11:17.122Z,4.90
2017-11-12T08:13:44.687Z,4.90
2017-11-12T08:16:12.243Z,5.00
2017-11-12T08:18:39.848Z,5.00
2017-11-12T08:21:07.419Z,5.10
2017-11-12T08:23:35.759Z,5.10
2017-11-12T08:26:03.312Z,5.10
2017-11-12T08:28:30.845Z,5.20
2017-11-12T08:30:58.393Z,5.20
2017-11-12T08:33:26.693Z,5.20
2017-11-12T08:35:54.258Z,5.20
2017-11-12T08:38:21.900Z,5.30
2017-11-12T08:40:49.448Z,5.30
2017-11-12T08:43:17.019Z,5.30
2017-11-12T08:45:44.587Z,5.30
2017-11-12T08:48:12.177Z,5.30
2017-11-12T08:50:39.731Z,5.20
2017-11-12T08:53:07.326Z,5.30
2017-11-12T08:55:35.640Z,5.30
2017-11-12T08:58:03.202Z,5.30
2017-11-12T09:00:30.753Z,5.30
2017-11-12T09:02:58.285Z,5.30
2017-11-12T09:05:26.609Z,5.40
2017-11-12T09:07:54.160Z,5.40
2017-11-12T09:10:21.708Z,5.40
2017-11-12T09:12:49.302Z,5.40
2017-11-12T09:15:16.855Z,5.40
2017-11-12T09:17:44.413Z,5.40
2017-11-12T09:20:12.061Z,5.30
2017-11-12T09:22:39.918Z,5.40
2017-11-12T09:25:07.504Z,5.40
2017-11-12T09:27:35.035Z,5.40
2017-11-12T09:30:02.628Z,5.50
2017-11-12T09:32:30.176Z,5.50
2017-11-12T09:34:57.729Z,5.60
2017-11-12T09:37:25.277Z,5.60
2017-11-12T09:39:52.839Z,5.70
2017-11-12T09:42:20.429Z,5.80
2017-11-12T09:44:47.980Z,5.80
2017-11-12T09:47:15.645Z,5.90
2017-11-12T09:49:43.203Z,5.90
2017-11-12T09:52:10.751Z,5.90
2017-11-12T09:54:38.350Z,5.90
2017-11-12T09:57:06.669Z,5.80
2017-11-12T09:59:34.229Z,5.80
2017-11-12T10:02:01.794Z,5.80
2017-11-12T10:04:29.344Z,5.80
2017-11-12T10:06:56.903Z,5.80
2017-11-12T10:09:24.451Z,5.90
2017-11-12T10:11:52.037Z,5.80
2017-11-12T10:14:19.569Z,5.80
2017-11-12T10:16:47.945Z,5.80
2017-11-12T10:19:15.533Z,5.70
2017-11-12T10:21:43.101Z,5.80
2017-11-12T10:24:10.697Z,5.90
2017-11-12T10:26:38.270Z,6.00
2017-11-12T10:29:06.591Z,6.10
2017-11-12T10:31:34.178Z,6.10
2017-11-12T10:34:01.750Z,6.20
2017-11-12T10:36:29.347Z,6.20
2017-11-12T10:38:56.918Z,6.00
2017-11-12T10:41:24.468Z,6.00
2017-11-12T10:43:52.040Z,5.90
2017-11-12T10:46:19.624Z,5.80
2017-11-12T10:48:47.260Z,5.90
2017-11-12T10:51:14.832Z,5.90
2017-11-12T10:53:42.405Z,5.80
2017-11-12T10:56:09.957Z,5.80
2017-11-12T10:58:37.508Z,5.70
2017-11-12T11:01:05.073Z,5.70
2017-11-12T11:03:32.624Z,5.60
2017-11-12T11:06:00.172Z,5.50
2017-11-12T11:08:27.754Z,5.40
2017-11-12T11:10:55.286Z,5.40
2017-11-12T11:13:22.846Z,5.40
2017-11-12T11:15:50.410Z,5.50
2017-11-12T11:18:17.945Z,5.40
2017-11-12T11:20:45.514Z,5.20
2017-11-12T11:23:13.076Z,5.10
2017-11-12T11:25:40.635Z,5.00
2017-11-12T11:28:08.171Z,5.00
2017-11-12T11:30:36.538Z,4.90
2017-11-12T11:33:04.856Z,4.90
2017-11-12T11:35:32.425Z,4.90
2017-11-12T11:38:00.046Z,4.90
2017-11-12T11:40:28.346Z,5.00
2017-11-12T11:42:55.889Z,5.00
2017-11-12T11:45:24.213Z,5.00
2017-11-12T11:47:51.862Z,5.00
2017-11-12T11:50:19.414Z,5.00
2017-11-12T11:52:46.982Z,5.00
2017-11-12T11:55:14.559Z,5.00
2017-11-12T11:57:42.115Z,4.90
2017-11-12T12:00:09.687Z,4.80
2017-11-12T12:02:37.251Z,4.80
2017-11-12T12:05:04.814Z,4.70
2017-11-12T12:07:32.373Z,4.80
2017-11-12T12:09:59.930Z,4.70
2017-11-12T12:12:27.477Z,4.80
2017-11-12T12:14:55.027Z,4.90
2017-11-12T12:17:22.597Z,4.90
2017-11-12T12:19:50.151Z,4.80
2017-11-12T12:22:17.732Z,4.80
2017-11-12T12:24:45.286Z,4.80
2017-11-12T12:27:12.832Z,4.80
2017-11-12T12:29:40.400Z,4.80
2017-11-12T12:32:07.984Z,4.90
2017-11-12T12:34:35.543Z,4.90
2017-11-12T12:37:03.092Z,4.90
2017-11-12T12:39:30.664Z,4.80
2017-11-12T12:41:58.215Z,4.80
2017-11-12T12:44:25.780Z,4.70
2017-11-12T12:46:53.324Z,4.70
2017-11-12T12:49:20.892Z,4.70
2017-11-12T12:51:48.438Z,4.70
2017-11-12T12:54:15.969Z,4.80
2017-11-12T12:56:43.544Z,4.80
2017-11-12T12:59:11.082Z,4.70
2017-11-12T13:01:39.455Z,4.80
2017-11-12T13:04:07.772Z,4.80
2017-11-12T13:06:35.345Z,4.80
2017-11-12T13:09:02.890Z,4.80
2017-11-12T13:11:30.486Z,4.80
2017-11-12T13:13:58.046Z,4.70
2017-11-12T13:16:25.600Z,4.70
2017-11-12T13:18:53.171Z,4.70
2017-11-12T13:21:20.735Z,4.70
2017-11-12T13:23:49.829Z,4.70
2017-11-12T13:26:17.379Z,4.70
2017-11-12T13:28:44.914Z,4.80
2017-11-12T13:31:12.498Z,4.80
2017-11-12T13:33:40.058Z,4.70
2017-11-12T13:36:08.386Z,4.70
2017-11-12T13:38:35.942Z,4.70
2017-11-12T13:41:03.506Z,4.70
2017-11-12T13:43:31.072Z,4.70
2017-11-12T13:45:58.630Z,4.70
2017-11-12T13:48:26.203Z,4.70
2017-11-12T13:50:53.751Z,4.60
2017-11-12T13:53:21.300Z,4.60
2017-11-12T13:55:48.873Z,4.50
2017-11-12T13:58:16.419Z,4.50
2017-11-12T14:00:43.992Z,4.50
2017-11-12T14:03:11.549Z,4.40
2017-11-12T14:05:39.219Z,4.50
2017-11-12T14:08:06.794Z,4.40
2017-11-12T14:10:34.344Z,4.40
2017-11-12T14:13:01.936Z,4.40
2017-11-12T14:15:29.471Z,4.40
2017-11-12T14:17:57.027Z,4.40
2017-11-12T14:20:24.591Z,4.50
2017-11-12T14:22:52.168Z,4.50
2017-11-12T14:25:19.752Z,4.50
2017-11-12T14:27:48.092Z,4.50
2017-11-12T14:30:15.638Z,4.50
2017-11-12T14:32:43.225Z,4.50
2017-11-12T14:35:10.761Z,4.50
2017-11-12T14:37:38.330Z,4.60
2017-11-12T14:40:05.871Z,4.60
2017-11-12T14:42:33.434Z,4.70
2017-11-12T14:45:01.021Z,4.70
2017-11-12T14:47:28.582Z,4.70
2017-11-12T14:49:56.178Z,4.80
2017-11-12T14:52:23.713Z,4.80
2017-11-12T14:54:52.066Z,4.80
2017-11-12T14:57:19.629Z,4.80
2017-11-12T14:59:47.980Z,4.50
2017-11-12T15:02:15.556Z,4.80
2017-11-12T15:04:43.116Z,4.90
2017-11-12T15:07:10.971Z,4.80
2017-11-12T15:09:38.546Z,4.90
2017-11-12T15:12:06.076Z,4.80
2017-11-12T15:14:33.652Z,4.80
2017-11-12T15:17:03.524Z,4.80
2017-11-12T15:19:31.868Z,4.70
2017-11-12T15:21:59.433Z,4.60
2017-11-12T15:24:27.008Z,4.70
2017-11-12T15:26:54.564Z,4.60
2017-11-12T15:29:22.127Z,4.60
2017-11-12T15:31:49.700Z,4.70
2017-11-12T15:34:17.232Z,4.60
2017-11-12T15:36:44.780Z,4.60
2017-11-12T15:39:12.482Z,4.60
2017-11-12T15:41:40.058Z,4.60
2017-11-12T15:44:08.382Z,4.60
2017-11-12T15:46:35.955Z,4.60
2017-11-12T15:49:03.540Z,4.60
2017-11-12T15:51:31.091Z,4.60
2017-11-12T15:53:58.628Z,4.50
2017-11-12T15:56:26.336Z,4.50
2017-11-12T15:58:54.647Z,4.40
2017-11-12T16:01:22.229Z,4.40
2017-11-12T16:03:49.784Z,4.40
2017-11-12T16:06:17.431Z,4.40
2017-11-12T16:08:44.993Z,4.40
2017-11-12T16:11:12.560Z,4.40
2017-11-12T16:13:40.111Z,4.40
2017-11-12T16:16:07.693Z,4.40
2017-11-12T16:18:35.239Z,4.40
2017-11-12T16:21:02.816Z,4.40
2017-11-12T16:23:30.349Z,4.50
2017-11-12T16:25:57.930Z,4.50
2017-11-12T16:28:25.479Z,4.50
2017-11-12T16:30:53.062Z,4.50
2017-11-12T16:33:20.627Z,4.40
2017-11-12T16:35:48.199Z,4.50
2017-11-12T16:38:16.524Z,4.50
2017-11-12T16:40:44.072Z,4.40
2017-11-12T16:43:11.619Z,4.40
2017-11-12T16:45:39.205Z,4.40
2017-11-12T16:48:06.753Z,4.40
2017-11-12T16:50:34.350Z,4.40
2017-11-12T16:53:01.944Z,4.50
2017-11-12T16:55:30.246Z,4.50
2017-11-12T16:57:57.842Z,4.50
2017-11-12T17:00:25.399Z,4.50
2017-11-12T17:02:54.497Z,4.50
2017-11-12T17:05:22.048Z,4.50
2017-11-12T17:07:49.687Z,4.50
2017-11-12T17:10:17.224Z,4.60
2017-11-12T17:12:44.769Z,4.60
2017-11-12T17:15:13.117Z,4.60
2017-11-12T17:17:41.413Z,4.70
2017-11-12T17:20:09.737Z,4.70
2017-11-12T17:22:37.437Z,4.70
2017-11-12T17:25:04.972Z,4.70
2017-11-12T17:27:32.619Z,4.70
2017-11-12T17:30:00.195Z,4.60
2017-11-12T17:32:27.789Z,4.60
2017-11-12T17:34:56.139Z,4.60
2017-11-12T17:37:23.710Z,4.60
2017-11-12T17:39:51.280Z,4.60
2017-11-12T17:42:18.836Z,4.60
2017-11-12T17:44:46.431Z,4.60
2017-11-12T17:47:14.022Z,4.60
2017-11-12T17:49:41.571Z,4.60
2017-11-12T17:52:09.144Z,4.60
2017-11-12T17:54:36.717Z,4.60
2017-11-12T17:57:04.280Z,4.50
2017-11-12T17:59:31.847Z,4.50
2017-11-12T18:01:59.382Z,4.50
2017-11-12T18:04:26.934Z,4.50
2017-11-12T18:06:54.484Z,4.50
2017-11-12T18:09:22.017Z,4.50
2017-11-12T18:11:49.585Z,4.50
2017-11-12T18:14:17.150Z,4.50
2017-11-12T18:16:44.734Z,4.50
2017-11-12T18:19:12.325Z,4.50
2017-11-12T18:21:39.873Z,4.50
2017-11-12T18:24:07.460Z,4.40
2017-11-12T18:26:35.825Z,4.40
2017-11-12T18:29:03.381Z,4.30
2017-11-12T18:31:30.941Z,4.30
2017-11-12T18:33:58.511Z,4.30
2017-11-12T18:36:26.829Z,4.30
2017-11-12T18:38:54.398Z,4.30
2017-11-12T18:41:21.978Z,4.30
2017-11-12T18:43:49.573Z,4.30
2017-11-12T18:46:17.117Z,4.30
2017-11-12T18:48:44.683Z,4.40
2017-11-12T18:51:13.166Z,4.40
2017-11-12T18:53:41.489Z,4.40
2017-11-12T18:56:11.528Z,4.40
2017-11-12T18:58:39.662Z,4.40
2017-11-12T19:04:27.654Z,4.50
2017-11-12T19:07:00.808Z,4.50
2017-11-12T19:09:32.893Z,4.50
2017-11-12T19:12:01.091Z,4.60
2017-11-12T19:14:28.680Z,4.60
2017-11-12T19:17:00.974Z,4.70
2017-11-12T19:19:29.489Z,4.70
2017-11-12T19:21:58.761Z,4.70
2017-11-12T19:24:41.253Z,4.70
2017-11-12T19:27:10.589Z,4.60
2017-11-12T19:29:38.167Z,4.60
2017-11-12T19:32:05.800Z,4.60
2017-11-12T19:34:33.381Z,4.60
2017-11-12T19:37:01.011Z,4.60
2017-11-12T19:39:28.794Z,4.50
2017-11-12T19:41:56.417Z,4.50
2017-11-12T19:44:24.001Z,4.50
2017-11-12T19:46:51.704Z,4.50
2017-11-12T19:49:19.441Z,4.50
2017-11-12T19:51:47.305Z,4.50
2017-11-12T19:54:15.069Z,4.40
2017-11-12T19:56:42.835Z,4.30
2017-11-12T19:59:10.605Z,4.30
2017-11-12T20:01:38.463Z,4.40
2017-11-12T20:04:06.334Z,4.40
2017-11-12T20:06:34.917Z,4.40
2017-11-12T20:09:03.496Z,4.40
2017-11-12T20:11:31.364Z,4.30
2017-11-12T20:13:59.126Z,4.40
2017-11-12T20:16:26.890Z,4.30
2017-11-12T20:18:54.512Z,4.30
2017-11-12T20:21:23.033Z,4.30
2017-11-12T20:23:50.633Z,4.30
2017-11-12T20:26:18.460Z,4.30
2017-11-12T20:28:46.037Z,4.20
2017-11-12T20:31:13.598Z,4.30
2017-11-12T20:33:41.216Z,4.20
2017-11-12T20:36:09.005Z,4.20
2017-11-12T20:38:36.602Z,4.20
2017-11-12T20:41:04.186Z,4.20
2017-11-12T20:43:32.496Z,4.20
2017-11-12T20:46:00.090Z,4.20
2017-11-12T20:48:27.670Z,4.30
2017-11-12T20:50:55.988Z,4.30
2017-11-12T20:53:23.541Z,4.30
2017-11-12T20:55:51.083Z,4.30
2017-11-12T20:58:19.439Z,4.30
2017-11-12T21:00:48.260Z,4.30
2017-11-12T21:03:15.835Z,4.30
2017-11-12T21:05:43.429Z,4.30
2017-11-12T21:08:10.977Z,4.30
2017-11-12T21:10:38.545Z,4.30
2017-11-12T21:13:06.112Z,4.40
2017-11-12T21:15:34.441Z,4.40
2017-11-12T21:18:02.022Z,4.40
2017-11-12T21:20:47.332Z,4.40
2017-11-12T21:23:16.765Z,4.40
2017-11-12T21:25:45.099Z,4.40
2017-11-12T21:28:16.163Z,4.30
2017-11-12T21:30:44.465Z,4.40
2017-11-12T21:33:14.627Z,4.40
2017-11-12T21:38:45.677Z,4.40
2017-11-12T21:41:13.237Z,4.40
2017-11-12T21:43:40.778Z,4.40
2017-11-12T21:46:08.341Z,4.40
2017-11-12T21:48:35.892Z,4.40
2017-11-12T21:51:03.568Z,4.40
2017-11-12T21:53:31.137Z,4.40
2017-11-12T21:55:58.687Z,4.50
2017-11-12T21:58:26.270Z,4.50
2017-11-12T22:00:53.824Z,4.50
2017-11-12T22:03:21.423Z,4.60
2017-11-12T22:05:49.754Z,4.50
2017-11-12T22:08:17.305Z,4.50
2017-11-12T22:10:44.881Z,4.40
2017-11-12T22:13:12.427Z,4.40
2017-11-12T22:15:39.986Z,4.50
2017-11-12T22:18:07.537Z,4.50
2017-11-12T22:20:35.101Z,4.60
2017-11-12T22:23:02.687Z,4.60
2017-11-12T22:25:30.236Z,4.60
2017-11-12T22:27:57.816Z,4.60
2017-11-12T22:30:26.155Z,4.60
2017-11-12T22:32:53.709Z,4.60
2017-11-12T22:35:21.277Z,4.50
2017-11-12T22:37:48.833Z,4.60
2017-11-12T22:40:16.397Z,4.50
2017-11-12T22:42:43.929Z,4.50
2017-11-12T22:45:11.487Z,4.50
2017-11-12T22:47:39.033Z,4.50
2017-11-12T22:50:07.347Z,4.60
2017-11-12T22:52:34.920Z,4.50
2017-11-12T22:55:02.490Z,4.60
2017-11-12T22:57:30.822Z,4.50
2017-11-12T22:59:58.391Z,4.50
2017-11-12T23:02:25.940Z,4.50
2017-11-12T23:04:53.503Z,4.50
2017-11-12T23:07:21.047Z,4.60
2017-11-12T23:09:48.600Z,4.50
2017-11-12T23:12:16.938Z,4.50
2017-11-12T23:14:44.483Z,4.50
2017-11-12T23:17:12.074Z,4.50
2017-11-12T23:19:39.627Z,4.50
2017-11-12T23:22:07.172Z,4.50
2017-11-12T23:24:34.740Z,4.50
2017-11-12T23:27:02.287Z,4.50
2017-11-12T23:29:29.863Z,4.50
2017-11-12T23:31:57.428Z,4.50
2017-11-12T23:34:24.994Z,4.50
2017-11-12T23:36:53.331Z,4.50
2017-11-12T23:39:20.869Z,4.50
2017-11-12T23:41:48.448Z,4.50
2017-11-12T23:44:15.985Z,4.40
2017-11-12T23:46:43.537Z,4.50
2017-11-12T23:49:11.115Z,4.50
2017-11-12T23:51:38.657Z,4.50
2017-11-12T23:54:06.232Z,4.50
2017-11-12T23:56:33.779Z,4.50
2017-11-12T23:59:01.312Z,4.60
